Time;durP1;ratioP1;P1;durP2;ratioP2;P2;SDS_P1;SDS_P2;PMS_P1;PMS_P2;Temp;Humidity;BMP_temperature;BMP_pressure;BME280_temperature;BME280_humidity;BME280_pressure;Samples;Min_cycle;Max_cycle;Signal;HPM_P1;HPM_P2
2023/12/03 00:00:40;;;;;;;47.93;43.47;;;2.70;99.90;;;;;;5031659;28;20041;-72
2023/12/03 00:03:10;;;;;;;35.83;31.95;;;2.60;99.90;;;;;;5047916;28;20048;-72
2023/12/03 00:05:36;;;;;;;53.07;47.80;;;2.40;99.90;;;;;;5031242;28;20025;-71
2023/12/03 00:08:02;;;;;;;49.47;44.70;;;2.40;99.90;;;;;;5048217;28;20033;-72
2023/12/03 00:10:28;;;;;;;51.00;45.63;;;2.50;99.90;;;;;;5047491;28;20030;-72
2023/12/03 00:12:54;;;;;;;49.23;44.00;;;2.50;99.90;;;;;;5047932;28;20474;-70
2023/12/03 00:15:21;;;;;;;39.47;35.17;;;2.50;99.90;;;;;;5030887;28;20041;-73
2023/12/03 00:17:49;;;;;;;49.63;44.43;;;2.60;99.90;;;;;;5032460;28;20402;-72
2023/12/03 00:20:15;;;;;;;45.80;40.90;;;2.70;99.90;;;;;;5032129;28;20045;-72
2023/12/03 00:22:41;;;;;;;38.43;34.40;;;2.80;99.90;;;;;;5032733;28;20040;-72
2023/12/03 00:25:08;;;;;;;42.43;38.20;;;2.90;99.90;;;;;;5030755;28;20030;-72
2023/12/03 00:27:34;;;;;;;39.83;33.50;;;2.90;99.90;;;;;;5032378;28;20036;-72
2023/12/03 00:30:00;;;;;;;46.20;41.53;;;3.00;99.90;;;;;;5031878;28;20032;-72
2023/12/03 00:32:26;;;;;;;41.70;37.17;;;3.00;99.90;;;;;;5031348;28;20029;-72
2023/12/03 00:34:52;;;;;;;44.27;37.50;;;2.90;99.90;;;;;;5031635;28;20029;-72
2023/12/03 00:37:18;;;;;;;60.93;55.60;;;3.00;99.90;;;;;;5031726;28;20040;-72
2023/12/03 00:39:44;;;;;;;49.87;44.93;;;3.00;99.90;;;;;;5032509;28;20044;-72
2023/12/03 00:42:10;;;;;;;38.50;33.13;;;2.90;99.90;;;;;;5032285;28;20032;-72
2023/12/03 00:44:36;;;;;;;38.30;34.07;;;3.00;99.90;;;;;;5031795;28;20378;-72
2023/12/03 00:47:02;;;;;;;48.53;44.17;;;3.00;99.90;;;;;;5015050;28;20041;-72
2023/12/03 00:49:29;;;;;;;47.33;42.40;;;3.00;99.90;;;;;;5012560;28;20026;-72
2023/12/03 00:51:56;;;;;;;51.80;46.97;;;3.10;99.90;;;;;;5012129;28;20034;-72
2023/12/03 00:54:22;;;;;;;39.03;34.87;;;3.10;99.90;;;;;;5011440;28;20038;-72
2023/12/03 00:56:48;;;;;;;71.53;65.67;;;3.20;99.90;;;;;;5011926;28;20383;-71
2023/12/03 00:59:14;;;;;;;44.30;39.60;;;3.00;99.90;;;;;;5011819;28;20049;-68
2023/12/03 01:01:40;;;;;;;41.33;36.83;;;3.10;99.90;;;;;;5011388;28;20045;-68
2023/12/03 01:04:06;;;;;;;45.37;40.73;;;2.90;99.90;;;;;;5011907;28;20041;-68
2023/12/03 01:06:32;;;;;;;42.07;37.77;;;2.90;99.90;;;;;;5011831;28;20513;-69
2023/12/03 01:08:58;;;;;;;42.67;38.17;;;3.00;99.90;;;;;;5012158;28;20026;-68
2023/12/03 01:11:24;;;;;;;57.07;51.73;;;2.80;99.90;;;;;;5011823;28;20034;-68
2023/12/03 01:13:50;;;;;;;43.40;39.07;;;2.70;99.90;;;;;;5011456;28;20033;-69
2023/12/03 01:16:17;;;;;;;95.37;88.40;;;2.60;99.90;;;;;;5010038;28;20026;-68
2023/12/03 01:18:43;;;;;;;85.03;78.33;;;2.70;99.90;;;;;;5011245;28;20061;-68
2023/12/03 01:21:09;;;;;;;72.60;66.67;;;2.80;99.90;;;;;;5010532;28;20026;-68
2023/12/03 01:23:35;;;;;;;67.27;61.67;;;2.70;99.90;;;;;;5012017;28;20025;-69
2023/12/03 01:26:01;;;;;;;58.37;53.00;;;2.90;99.90;;;;;;5011928;28;20029;-68
2023/12/03 01:28:27;;;;;;;40.17;36.07;;;2.70;99.90;;;;;;5011397;28;20045;-69
2023/12/03 01:30:53;;;;;;;49.20;44.57;;;2.70;99.90;;;;;;5010857;28;20041;-68
2023/12/03 01:33:20;;;;;;;36.90;30.63;;;2.70;99.90;;;;;;5011899;28;20045;-68
2023/12/03 01:35:46;;;;;;;43.27;39.17;;;2.80;99.90;;;;;;5011079;28;20033;-68
2023/12/03 01:38:12;;;;;;;42.30;34.73;;;2.80;99.90;;;;;;5011872;28;20038;-68
2023/12/03 01:40:38;;;;;;;45.13;40.80;;;2.70;99.90;;;;;;5011222;28;20029;-68
2023/12/03 01:43:04;;;;;;;48.30;43.77;;;2.70;99.90;;;;;;5011722;28;20383;-69
2023/12/03 01:45:31;;;;;;;57.53;52.30;;;2.80;99.90;;;;;;5015287;28;20494;-69
2023/12/03 01:47:57;;;;;;;47.00;42.87;;;2.90;99.90;;;;;;5034112;28;20038;-68
2023/12/03 01:50:23;;;;;;;42.67;38.07;;;2.90;99.90;;;;;;5034968;28;20048;-68
2023/12/03 01:52:49;;;;;;;64.70;59.43;;;2.70;99.90;;;;;;5050405;28;20037;-68
2023/12/03 01:55:16;;;;;;;47.43;43.10;;;2.70;99.90;;;;;;5033677;28;20030;-69
2023/12/03 01:57:43;;;;;;;48.03;43.37;;;2.90;99.90;;;;;;5034832;28;20052;-68
2023/12/03 02:00:09;;;;;;;45.47;41.27;;;2.90;99.90;;;;;;5032304;28;20501;-68
2023/12/03 02:02:36;;;;;;;42.50;38.30;;;2.80;99.90;;;;;;5015125;28;20022;-69
2023/12/03 02:05:02;;;;;;;54.27;49.17;;;2.90;99.90;;;;;;5015441;28;20098;-69
2023/12/03 02:07:28;;;;;;;83.37;77.30;;;2.90;99.90;;;;;;5014387;28;20459;-68
2023/12/03 02:09:55;;;;;;;49.33;44.43;;;2.90;99.90;;;;;;5014898;28;20037;-68
2023/12/03 02:12:21;;;;;;;48.50;43.97;;;2.90;99.90;;;;;;5014450;28;20383;-68
2023/12/03 02:14:47;;;;;;;60.90;55.60;;;3.10;99.90;;;;;;5015466;28;20033;-68
2023/12/03 02:17:14;;;;;;;51.53;46.70;;;3.20;99.90;;;;;;5014009;28;20426;-68
2023/12/03 02:19:40;;;;;;;42.63;38.23;;;3.30;99.90;;;;;;5014087;28;20503;-68
2023/12/03 02:22:06;;;;;;;37.80;33.63;;;3.00;99.90;;;;;;5014049;28;20030;-68
2023/12/03 02:24:32;;;;;;;48.00;43.60;;;3.00;99.90;;;;;;5014266;28;20036;-68
2023/12/03 02:26:58;;;;;;;43.80;39.43;;;3.10;99.90;;;;;;5029031;28;20018;-68
2023/12/03 02:29:24;;;;;;;46.87;42.33;;;3.00;99.90;;;;;;5014916;28;20383;-68
2023/12/03 02:31:51;;;;;;;54.80;49.90;;;2.90;99.90;;;;;;5013961;28;20045;-68
2023/12/03 02:34:17;;;;;;;67.57;61.97;;;3.00;99.90;;;;;;5014396;28;20037;-69
2023/12/03 02:36:43;;;;;;;72.20;66.13;;;3.10;99.90;;;;;;5014232;28;20042;-71
2023/12/03 02:39:09;;;;;;;74.73;69.00;;;3.20;99.90;;;;;;5013308;28;20054;-71
2023/12/03 02:41:35;;;;;;;51.63;46.60;;;3.20;99.90;;;;;;5012870;28;20048;-70
2023/12/03 02:44:01;;;;;;;46.83;42.47;;;3.20;99.90;;;;;;5014146;28;20542;-70
2023/12/03 02:46:27;;;;;;;47.03;42.07;;;3.00;99.90;;;;;;5012193;28;20037;-70
2023/12/03 02:48:53;;;;;;;42.50;37.93;;;2.90;99.90;;;;;;5014200;28;20475;-70
2023/12/03 02:51:20;;;;;;;52.97;48.03;;;2.80;99.90;;;;;;5029003;28;20033;-71
2023/12/03 02:53:46;;;;;;;44.17;39.73;;;2.70;99.90;;;;;;5014649;28;20490;-70
2023/12/03 02:56:16;;;;;;;51.73;46.93;;;2.60;99.90;;;;;;5012114;28;20037;-71
2023/12/03 02:58:42;;;;;;;34.03;30.30;;;2.70;99.90;;;;;;5012729;28;20053;-70
2023/12/03 03:01:08;;;;;;;46.00;41.97;;;2.80;99.90;;;;;;5012705;28;20037;-71
2023/12/03 03:03:34;;;;;;;35.90;32.00;;;2.70;99.90;;;;;;5012850;28;20060;-71
2023/12/03 03:06:00;;;;;;;43.63;38.90;;;2.60;99.90;;;;;;5028813;28;20034;-70
2023/12/03 03:08:26;;;;;;;31.13;26.03;;;2.60;99.90;;;;;;5012592;28;20033;-70
2023/12/03 03:10:52;;;;;;;35.57;31.63;;;2.70;99.90;;;;;;5011921;28;20041;-70
2023/12/03 03:13:18;;;;;;;37.50;31.43;;;2.70;99.90;;;;;;5013712;28;20037;-70
2023/12/03 03:15:44;;;;;;;33.33;26.53;;;2.60;99.90;;;;;;5012362;28;20392;-70
2023/12/03 03:18:11;;;;;;;37.23;27.33;;;2.50;99.90;;;;;;5012809;28;20050;-71
2023/12/03 03:20:37;;;;;;;35.23;28.67;;;2.50;99.90;;;;;;5012667;28;20037;-70
2023/12/03 03:23:03;;;;;;;39.63;28.20;;;2.50;99.90;;;;;;5013221;28;20073;-70
2023/12/03 03:25:29;;;;;;;31.97;23.07;;;2.60;99.90;;;;;;5011924;28;20145;-70
2023/12/03 03:27:55;;;;;;;33.17;23.40;;;2.50;99.90;;;;;;5011651;28;20395;-71
2023/12/03 03:30:21;;;;;;;31.47;23.03;;;2.30;99.90;;;;;;5027653;28;20033;-70
2023/12/03 03:32:47;;;;;;;38.87;29.80;;;2.30;99.90;;;;;;5013660;28;20489;-70
2023/12/03 03:35:13;;;;;;;37.77;29.07;;;2.30;99.90;;;;;;5012850;28;20041;-70
2023/12/03 03:37:39;;;;;;;34.93;31.03;;;2.40;99.90;;;;;;5012590;28;20033;-70
2023/12/03 03:40:06;;;;;;;42.23;29.47;;;2.40;99.90;;;;;;5028455;28;20053;-68
2023/12/03 03:42:32;;;;;;;30.87;24.43;;;2.30;99.90;;;;;;5012909;28;20048;-69
2023/12/03 03:44:58;;;;;;;41.27;33.77;;;2.30;99.90;;;;;;5012510;28;20407;-68
2023/12/03 03:47:24;;;;;;;40.00;31.30;;;2.40;99.90;;;;;;5012571;28;20034;-68
2023/12/03 03:49:51;;;;;;;40.17;29.70;;;2.50;99.90;;;;;;5013448;28;20460;-69
2023/12/03 03:52:17;;;;;;;38.20;26.77;;;2.60;99.90;;;;;;5012175;28;20034;-68
2023/12/03 03:54:43;;;;;;;34.83;23.13;;;2.60;99.90;;;;;;5013215;28;20486;-68
2023/12/03 03:57:09;;;;;;;41.90;29.70;;;2.50;99.90;;;;;;5012534;28;20044;-68
2023/12/03 03:59:35;;;;;;;33.23;24.33;;;2.60;99.90;;;;;;5012993;28;20109;-69
2023/12/03 04:02:01;;;;;;;41.67;34.07;;;2.50;99.90;;;;;;5012437;28;20041;-69
2023/12/03 04:04:27;;;;;;;42.93;34.93;;;2.40;99.90;;;;;;5013456;28;20041;-69
2023/12/03 04:06:53;;;;;;;41.37;36.27;;;2.50;99.90;;;;;;5011938;28;20022;-69
2023/12/03 04:09:19;;;;;;;38.57;32.00;;;2.70;99.90;;;;;;5012501;28;20034;-69
2023/12/03 04:11:46;;;;;;;43.83;34.77;;;2.80;99.90;;;;;;5012585;28;20030;-68
2023/12/03 04:14:14;;;;;;;38.40;34.13;;;2.90;99.90;;;;;;5012435;28;20044;-69
2023/12/03 04:16:40;;;;;;;43.10;35.83;;;2.90;99.90;;;;;;5012015;28;20037;-68
2023/12/03 04:19:06;;;;;;;42.17;32.60;;;2.90;99.90;;;;;;5012333;28;20073;-69
2023/12/03 04:21:33;;;;;;;35.90;27.37;;;2.90;99.90;;;;;;5012448;28;20482;-69
2023/12/03 04:23:59;;;;;;;41.77;29.23;;;2.90;99.90;;;;;;5012347;28;20399;-69
2023/12/03 04:26:25;;;;;;;44.07;33.07;;;2.80;99.90;;;;;;5026950;28;20042;-69
2023/12/03 04:28:52;;;;;;;42.07;32.30;;;2.90;99.90;;;;;;5012747;28;20054;-68
2023/12/03 04:31:21;;;;;;;41.13;32.83;;;2.90;99.90;;;;;;5011282;28;20037;-68
2023/12/03 04:33:50;;;;;;;40.30;33.20;;;3.00;99.90;;;;;;5012238;28;20045;-69
2023/12/03 04:36:17;;;;;;;42.97;33.60;;;3.00;99.90;;;;;;5012137;28;20045;-68
2023/12/03 04:38:43;;;;;;;43.10;31.60;;;2.90;99.90;;;;;;5012679;28;20471;-68
2023/12/03 04:41:09;;;;;;;41.57;36.20;;;2.80;99.90;;;;;;5012063;28;20042;-68
2023/12/03 04:43:35;;;;;;;45.53;36.23;;;2.80;99.90;;;;;;5012578;28;20041;-68
2023/12/03 04:46:05;;;;;;;42.83;32.50;;;2.80;99.90;;;;;;5012003;28;20037;-68
2023/12/03 04:48:32;;;;;;;42.13;33.27;;;2.80;99.90;;;;;;5027546;28;20034;-69
2023/12/03 04:50:58;;;;;;;46.10;31.93;;;2.80;99.90;;;;;;5010522;28;20048;-68
2023/12/03 04:53:24;;;;;;;43.63;34.97;;;2.90;99.90;;;;;;5011946;28;20029;-69
2023/12/03 04:55:50;;;;;;;38.57;33.07;;;2.80;99.90;;;;;;5027066;28;20038;-69
2023/12/03 04:58:16;;;;;;;45.43;33.83;;;2.70;99.90;;;;;;5012162;28;20463;-68
2023/12/03 05:00:42;;;;;;;47.37;39.27;;;2.70;99.90;;;;;;5011479;28;20042;-68
2023/12/03 05:03:08;;;;;;;49.03;42.40;;;2.80;99.90;;;;;;5012139;28;20399;-68
2023/12/03 05:05:34;;;;;;;49.93;40.50;;;2.80;99.90;;;;;;5026877;28;20030;-68
2023/12/03 05:08:00;;;;;;;50.63;39.20;;;2.90;99.90;;;;;;5027533;28;20380;-70
2023/12/03 05:10:27;;;;;;;45.40;39.07;;;3.00;99.90;;;;;;5010583;28;20042;-70
2023/12/03 05:12:53;;;;;;;46.60;33.80;;;3.00;99.90;;;;;;5012447;28;20034;-71
2023/12/03 05:15:19;;;;;;;45.43;35.20;;;3.00;99.90;;;;;;5009900;28;20033;-70
2023/12/03 05:17:45;;;;;;;34.20;26.40;;;2.90;99.90;;;;;;5011861;28;20057;-71
2023/12/03 05:20:11;;;;;;;41.70;30.93;;;2.90;99.90;;;;;;5010512;28;20057;-71
2023/12/03 05:22:37;;;;;;;46.27;32.47;;;2.90;99.90;;;;;;5013551;28;20410;-71
2023/12/03 05:25:04;;;;;;;56.47;32.73;;;2.90;99.90;;;;;;5013661;28;20038;-70
2023/12/03 05:27:30;;;;;;;222.30;49.43;;;2.90;99.90;;;;;;5030235;28;20390;-70
2023/12/03 05:29:57;;;;;;;40.80;31.07;;;2.90;99.90;;;;;;5009951;28;20034;-71
2023/12/03 05:32:23;;;;;;;129.67;50.27;;;2.90;99.90;;;;;;5033869;28;20502;-71
2023/12/03 05:34:49;;;;;;;47.17;39.60;;;3.00;99.90;;;;;;5035398;28;20022;-71
2023/12/03 05:37:15;;;;;;;52.93;47.30;;;3.10;99.90;;;;;;5035113;28;20565;-71
2023/12/03 05:39:41;;;;;;;51.63;29.97;;;3.00;99.90;;;;;;5035118;28;20048;-71
2023/12/03 05:42:07;;;;;;;237.23;57.03;;;2.90;99.90;;;;;;5033980;28;20026;-71
2023/12/03 05:44:33;;;;;;;42.37;35.67;;;2.90;99.90;;;;;;5050673;28;20033;-70
2023/12/03 05:47:00;;;;;;;53.03;46.90;;;2.90;99.90;;;;;;5034552;28;20041;-70
2023/12/03 05:49:27;;;;;;;38.37;32.43;;;2.90;99.90;;;;;;5035035;28;20382;-71
2023/12/03 05:51:53;;;;;;;51.63;45.00;;;2.90;99.90;;;;;;5032619;28;20498;-71
2023/12/03 05:54:19;;;;;;;52.23;46.60;;;2.80;99.90;;;;;;5033941;28;20049;-71
2023/12/03 05:56:45;;;;;;;54.30;48.43;;;3.00;99.90;;;;;;5034927;28;20036;-71
2023/12/03 05:59:12;;;;;;;53.90;47.63;;;3.00;99.90;;;;;;5034074;28;20068;-71
2023/12/03 06:01:38;;;;;;;64.07;42.63;;;3.00;99.90;;;;;;5021304;28;20041;-71
2023/12/03 06:04:08;;;;;;;77.03;45.90;;;3.00;99.90;;;;;;5012533;28;20485;-71
2023/12/03 06:06:36;;;;;;;52.37;41.90;;;3.00;99.90;;;;;;5014871;28;20042;-71
2023/12/03 06:09:06;;;;;;;50.27;42.47;;;3.00;99.90;;;;;;5030387;28;20033;-71
2023/12/03 06:11:32;;;;;;;45.67;39.87;;;3.00;99.90;;;;;;5029840;28;20061;-69
2023/12/03 06:13:59;;;;;;;47.67;39.03;;;3.00;99.90;;;;;;5012191;28;20034;-69
2023/12/03 06:16:25;;;;;;;654.53;102.20;;;3.10;99.90;;;;;;5009509;28;20045;-69
2023/12/03 06:18:51;;;;;;;196.63;45.50;;;3.00;99.90;;;;;;5011623;28;20061;-70
2023/12/03 06:21:17;;;;;;;199.67;50.00;;;3.10;99.90;;;;;;5013932;28;20030;-69
2023/12/03 06:23:43;;;;;;;56.10;42.93;;;3.10;99.90;;;;;;5014215;28;20038;-69
2023/12/03 06:26:09;;;;;;;53.20;39.80;;;3.20;99.90;;;;;;5014342;28;20037;-69
2023/12/03 06:28:35;;;;;;;49.53;36.30;;;3.10;99.90;;;;;;5029833;28;20034;-69
2023/12/03 06:31:04;;;;;;;49.23;42.70;;;3.10;99.90;;;;;;5014080;28;20402;-69
2023/12/03 06:33:30;;;;;;;47.73;37.63;;;3.10;99.90;;;;;;5011351;28;20030;-69
2023/12/03 06:35:56;;;;;;;105.73;41.47;;;3.00;99.90;;;;;;5013752;28;20042;-69
2023/12/03 06:38:23;;;;;;;55.33;42.53;;;3.00;99.90;;;;;;5014497;28;20038;-69
2023/12/03 06:40:49;;;;;;;492.07;60.43;;;2.90;99.90;;;;;;5014255;28;20487;-69
2023/12/03 06:43:15;;;;;;;48.53;43.23;;;2.90;99.90;;;;;;5014300;28;20036;-69
2023/12/03 06:45:41;;;;;;;51.07;43.90;;;2.90;99.90;;;;;;5029832;28;20034;-69
2023/12/03 06:48:07;;;;;;;58.87;39.37;;;3.00;99.90;;;;;;5014518;28;20030;-69
2023/12/03 06:50:33;;;;;;;52.30;38.13;;;3.10;99.90;;;;;;5013989;28;20495;-69
2023/12/03 06:53:00;;;;;;;46.10;37.87;;;3.10;99.90;;;;;;5014389;28;20497;-69
2023/12/03 06:55:27;;;;;;;48.37;38.83;;;3.20;99.90;;;;;;5013653;28;20029;-69
2023/12/03 06:57:53;;;;;;;103.93;40.70;;;3.10;99.90;;;;;;5013448;28;20065;-69
2023/12/03 07:00:20;;;;;;;50.60;40.23;;;3.10;99.90;;;;;;5013577;28;20045;-69
2023/12/03 07:02:46;;;;;;;47.67;39.93;;;3.00;99.90;;;;;;5013937;28;20383;-69
2023/12/03 07:05:12;;;;;;;50.97;39.63;;;2.90;99.90;;;;;;5013903;28;20037;-69
2023/12/03 07:07:38;;;;;;;44.67;36.07;;;2.80;99.90;;;;;;5034145;28;20493;-69
2023/12/03 07:10:04;;;;;;;47.17;38.40;;;3.10;99.90;;;;;;5021322;28;20056;-69
2023/12/03 07:12:30;;;;;;;39.50;32.40;;;3.10;99.90;;;;;;5014100;28;20025;-69
2023/12/03 07:14:57;;;;;;;51.03;38.83;;;3.00;99.90;;;;;;5014211;28;20041;-69
2023/12/03 07:17:23;;;;;;;431.10;65.73;;;3.00;99.90;;;;;;5013106;28;20038;-70
2023/12/03 07:19:49;;;;;;;224.63;48.53;;;3.10;99.90;;;;;;5012570;28;20054;-69
2023/12/03 07:22:15;;;;;;;48.07;42.57;;;3.10;99.90;;;;;;5013624;28;20383;-69
2023/12/03 07:24:42;;;;;;;61.70;44.43;;;3.00;99.90;;;;;;5013989;28;20033;-69
2023/12/03 07:27:08;;;;;;;52.10;46.07;;;3.10;99.90;;;;;;5011472;28;20414;-69
2023/12/03 07:29:35;;;;;;;47.83;41.27;;;3.20;99.90;;;;;;5013307;28;20040;-69
2023/12/03 07:32:02;;;;;;;43.30;37.00;;;3.20;99.90;;;;;;5011970;28;20034;-69
2023/12/03 07:34:28;;;;;;;50.30;37.83;;;3.10;99.90;;;;;;5013931;28;20498;-69
2023/12/03 07:36:54;;;;;;;48.70;42.70;;;3.00;99.90;;;;;;5013683;28;20054;-69
2023/12/03 07:39:22;;;;;;;50.47;45.03;;;3.10;99.90;;;;;;5013387;28;20395;-69
2023/12/03 07:41:50;;;;;;;45.87;33.23;;;3.20;99.90;;;;;;5013758;28;20057;-69
2023/12/03 07:44:16;;;;;;;43.43;33.43;;;3.10;99.90;;;;;;5011444;28;20040;-69
2023/12/03 07:46:42;;;;;;;42.80;32.47;;;3.10;99.90;;;;;;5011268;28;20494;-69
2023/12/03 07:49:08;;;;;;;47.33;38.20;;;3.00;99.90;;;;;;5031964;28;20037;-68
2023/12/03 07:51:34;;;;;;;47.80;37.83;;;3.00;99.90;;;;;;5032994;28;20029;-69
2023/12/03 07:54:00;;;;;;;49.80;42.37;;;3.00;99.90;;;;;;5042824;28;20044;-69
2023/12/03 07:56:36;;;;;;;50.43;44.10;;;3.10;99.90;;;;;;5033099;28;20485;-69
2023/12/03 07:59:03;;;;;;;46.20;41.23;;;3.10;99.90;;;;;;5030684;28;20040;-68
2023/12/03 08:01:29;;;;;;;45.53;36.83;;;3.20;99.90;;;;;;5047572;28;20381;-68
2023/12/03 08:03:55;;;;;;;45.03;37.40;;;3.20;99.90;;;;;;5028362;28;20412;-69
2023/12/03 08:06:21;;;;;;;49.03;39.17;;;3.10;99.90;;;;;;4993564;28;20037;-69
2023/12/03 08:08:47;;;;;;;51.33;43.60;;;3.20;99.90;;;;;;4993619;28;20034;-69
2023/12/03 08:11:13;;;;;;;53.57;47.63;;;3.20;99.90;;;;;;4993593;28;20038;-70
2023/12/03 08:13:39;;;;;;;49.90;43.83;;;3.30;99.90;;;;;;4993134;28;20038;-68
2023/12/03 08:16:06;;;;;;;56.40;50.57;;;3.50;99.90;;;;;;4996717;28;20065;-71
2023/12/03 08:18:32;;;;;;;55.07;48.17;;;3.70;99.90;;;;;;5012707;28;20041;-71
2023/12/03 08:20:59;;;;;;;51.77;42.80;;;3.80;99.90;;;;;;5009861;28;20052;-71
2023/12/03 08:23:27;;;;;;;51.97;46.73;;;3.80;99.90;;;;;;5006774;28;20060;-71
2023/12/03 08:25:53;;;;;;;62.13;49.33;;;3.90;99.90;;;;;;5012473;28;20394;-71
2023/12/03 08:28:19;;;;;;;54.87;48.80;;;4.00;99.90;;;;;;5012833;28;20026;-71
2023/12/03 08:30:45;;;;;;;53.50;48.03;;;4.10;99.90;;;;;;5020834;28;20436;-72
2023/12/03 08:33:11;;;;;;;53.20;47.63;;;4.10;99.90;;;;;;5010532;28;20045;-71
2023/12/03 08:35:37;;;;;;;61.70;55.57;;;4.20;99.90;;;;;;5012503;28;20499;-71
2023/12/03 08:38:03;;;;;;;56.03;50.53;;;4.20;99.90;;;;;;5010027;28;20049;-71
2023/12/03 08:40:30;;;;;;;55.80;50.47;;;4.20;99.90;;;;;;5026524;28;20068;-71
2023/12/03 08:42:56;;;;;;;62.27;56.53;;;4.10;99.90;;;;;;5012467;28;20456;-70
2023/12/03 08:45:22;;;;;;;60.07;54.37;;;4.20;99.90;;;;;;5011905;28;20045;-71
2023/12/03 08:47:48;;;;;;;61.33;55.80;;;4.20;99.90;;;;;;5013604;28;20029;-71
2023/12/03 08:50:14;;;;;;;61.63;55.70;;;4.00;99.90;;;;;;5009981;28;20045;-71
2023/12/03 08:52:40;;;;;;;74.20;67.70;;;4.00;99.90;;;;;;5011777;28;20046;-71
2023/12/03 08:55:07;;;;;;;59.03;53.23;;;4.00;99.90;;;;;;5010348;28;20057;-72
2023/12/03 08:57:33;;;;;;;58.07;52.70;;;4.00;99.90;;;;;;5010028;28;20030;-71
2023/12/03 08:59:59;;;;;;;63.13;57.50;;;4.00;99.90;;;;;;5011408;28;20041;-71
2023/12/03 09:02:25;;;;;;;59.03;53.37;;;4.00;99.90;;;;;;5025668;28;20700;-71
2023/12/03 09:04:51;;;;;;;58.13;52.90;;;4.10;99.90;;;;;;5012240;28;20034;-71
2023/12/03 09:07:17;;;;;;;61.93;56.07;;;4.10;99.90;;;;;;5010881;28;20054;-71
2023/12/03 09:09:43;;;;;;;60.63;55.20;;;4.10;99.90;;;;;;5012081;28;20037;-72
2023/12/03 09:12:09;;;;;;;61.20;55.40;;;4.20;99.90;;;;;;5011159;28;20518;-72
2023/12/03 09:14:35;;;;;;;58.27;52.70;;;4.30;99.90;;;;;;5011863;28;20052;-71
2023/12/03 09:17:03;;;;;;;54.03;49.20;;;4.40;99.90;;;;;;5010611;28;20498;-71
2023/12/03 09:19:30;;;;;;;63.70;58.43;;;4.60;99.90;;;;;;5011285;28;20042;-71
2023/12/03 09:21:56;;;;;;;66.53;60.77;;;4.70;99.90;;;;;;5010987;28;20053;-71
2023/12/03 09:24:22;;;;;;;60.77;56.00;;;4.80;99.90;;;;;;5012021;28;20060;-71
2023/12/03 09:26:48;;;;;;;69.23;63.63;;;4.80;99.90;;;;;;5009153;28;20053;-71
2023/12/03 09:29:14;;;;;;;64.20;58.87;;;4.90;99.90;;;;;;5011435;28;20037;-72
2023/12/03 09:31:41;;;;;;;64.33;59.30;;;4.90;99.90;;;;;;5010390;28;20046;-71
2023/12/03 09:34:07;;;;;;;67.57;62.33;;;5.00;99.90;;;;;;5011751;28;20049;-70
2023/12/03 09:36:34;;;;;;;76.40;70.77;;;5.10;99.90;;;;;;5010763;28;20038;-71
2023/12/03 09:39:00;;;;;;;115.33;107.83;;;5.10;99.90;;;;;;5011978;28;20361;-70
2023/12/03 09:41:33;;;;;;;75.93;70.13;;;5.20;99.90;;;;;;5010857;28;20042;-70
2023/12/03 09:44:00;;;;;;;89.03;83.00;;;5.20;99.90;;;;;;5026046;28;20494;-70
2023/12/03 09:46:30;;;;;;;91.20;84.80;;;5.30;99.90;;;;;;5025623;28;20038;-70
2023/12/03 09:48:56;;;;;;;106.88;100.05;;;5.30;99.90;;;;;;5011926;28;20054;-70
2023/12/03 09:51:22;;;;;;;115.60;107.73;;;5.40;99.90;;;;;;5009437;28;20037;-70
2023/12/03 09:53:49;;;;;;;136.50;128.00;;;5.50;99.90;;;;;;5011167;28;20387;-70
2023/12/03 09:56:15;;;;;;;149.47;140.33;;;5.60;99.90;;;;;;5009921;28;20034;-70
2023/12/03 09:58:42;;;;;;;100.50;93.70;;;5.70;99.90;;;;;;5026558;28;20060;-70
2023/12/03 10:01:08;;;;;;;78.87;73.47;;;5.80;99.90;;;;;;5017649;28;20041;-71
2023/12/03 10:03:34;;;;;;;87.17;80.97;;;5.90;99.90;;;;;;5046597;28;20034;-70
2023/12/03 10:06:00;;;;;;;72.63;67.10;;;6.00;99.90;;;;;;5030849;28;20041;-71
2023/12/03 10:08:27;;;;;;;71.28;66.20;;;6.00;99.90;;;;;;5044915;28;20112;-71
2023/12/03 10:10:59;;;;;;;60.17;55.40;;;6.00;99.90;;;;;;5031552;28;20041;-70
2023/12/03 10:13:25;;;;;;;49.63;45.43;;;6.10;99.90;;;;;;5049960;28;20037;-70
2023/12/03 10:15:52;;;;;;;57.20;52.72;;;6.20;99.90;;;;;;5032623;28;20045;-70
2023/12/03 10:18:19;;;;;;;55.53;51.42;;;6.30;99.90;;;;;;5034630;28;20056;-70
2023/12/03 10:20:45;;;;;;;50.53;46.37;;;6.30;99.90;;;;;;5033077;28;20394;-70
2023/12/03 10:23:15;;;;;;;55.78;51.65;;;6.40;99.90;;;;;;5034721;28;20037;-70
2023/12/03 10:25:41;;;;;;;83.00;77.57;;;6.50;99.90;;;;;;5033069;28;20037;-70
2023/12/03 10:28:08;;;;;;;78.20;72.78;;;6.50;99.90;;;;;;5033562;28;20037;-71
2023/12/03 10:30:35;;;;;;;54.53;50.60;;;6.50;99.90;;;;;;5032278;28;20502;-70
2023/12/03 10:33:01;;;;;;;52.78;48.67;;;6.60;99.90;;;;;;5034202;28;20065;-70
2023/12/03 10:35:31;;;;;;;49.22;45.63;;;6.60;99.90;;;;;;5033636;28;20059;-70
2023/12/03 10:37:57;;;;;;;57.40;53.35;;;6.70;99.90;;;;;;5048750;28;20037;-70
2023/12/03 10:40:25;;;;;;;42.65;39.17;;;6.80;99.90;;;;;;5033064;28;20038;-70
2023/12/03 10:42:51;;;;;;;53.85;50.05;;;6.90;99.90;;;;;;5034281;28;20053;-69
2023/12/03 10:45:17;;;;;;;60.70;56.58;;;7.00;99.90;;;;;;5031613;28;20045;-69
2023/12/03 10:47:43;;;;;;;33.75;30.83;;;7.00;99.90;;;;;;5033908;28;20045;-70
2023/12/03 10:50:11;;;;;;;36.25;33.08;;;7.10;99.90;;;;;;5033849;28;20033;-69
2023/12/03 10:52:38;;;;;;;38.80;35.85;;;7.20;99.90;;;;;;5029323;28;20041;-70
2023/12/03 10:55:06;;;;;;;35.83;32.78;;;7.30;99.90;;;;;;5032801;28;20025;-69
2023/12/03 10:57:33;;;;;;;41.22;37.92;;;7.40;99.90;;;;;;5031184;28;20041;-70
2023/12/03 11:00:05;;;;;;;42.67;39.30;;;7.40;99.90;;;;;;5048500;28;20046;-69
2023/12/03 11:02:35;;;;;;;42.88;39.35;;;7.40;99.90;;;;;;5032266;28;20025;-69
2023/12/03 11:05:03;;;;;;;43.57;40.47;;;7.40;99.90;;;;;;5015803;28;20053;-70
2023/12/03 11:07:30;;;;;;;42.22;39.13;;;7.50;99.90;;;;;;5030631;28;20280;-69
2023/12/03 11:09:57;;;;;;;70.13;65.35;;;7.50;99.90;;;;;;5031972;28;20049;-69
2023/12/03 11:12:23;;;;;;;42.35;39.05;;;7.60;99.90;;;;;;5032523;28;20400;-69
2023/12/03 11:14:50;;;;;;;40.22;37.10;;;7.70;99.90;;;;;;5048144;28;20044;-70
2023/12/03 11:17:35;;;;;;;42.05;38.95;;;7.70;99.90;;;;;;5031018;28;20047;-70
2023/12/03 11:20:16;;;;;;;49.60;46.30;;;7.80;99.90;;;;;;5046372;28;20049;-70
2023/12/03 11:22:49;;;;;;;49.63;46.25;;;7.90;99.90;;;;;;5030853;28;20064;-69
2023/12/03 11:25:16;;;;;;;60.47;56.58;;;7.90;99.90;;;;;;5032517;28;20048;-70
2023/12/03 11:27:43;;;;;;;43.47;40.65;;;8.00;99.90;;;;;;5047767;28;20402;-70
2023/12/03 11:30:13;;;;;;;53.60;50.13;;;8.10;99.90;;;;;;5032656;28;20034;-70
2023/12/03 11:32:40;;;;;;;52.38;49.00;;;8.30;99.90;;;;;;5040737;28;20053;-69
2023/12/03 11:35:07;;;;;;;54.03;50.35;;;8.40;99.90;;;;;;5031536;28;20033;-69
2023/12/03 11:37:33;;;;;;;61.17;57.50;;;8.40;99.90;;;;;;5032469;28;20045;-70
2023/12/03 11:40:08;;;;;;;68.30;64.20;;;8.50;99.90;;;;;;5033131;28;20052;-70
2023/12/03 11:42:47;;;;;;;58.72;54.97;;;8.50;99.90;;;;;;5031739;28;20056;-70
2023/12/03 11:45:23;;;;;;;102.07;96.32;;;8.60;99.90;;;;;;5031970;28;20029;-69
2023/12/03 11:48:06;;;;;;;140.90;133.10;;;8.80;99.90;;;;;;5033077;28;20025;-70
2023/12/03 11:50:34;;;;;;;141.98;133.73;;;8.90;99.90;;;;;;5032040;28;20493;-69
2023/12/03 11:53:00;;;;;;;142.13;134.43;;;9.10;99.90;;;;;;5032147;28;20037;-70
2023/12/03 11:55:29;;;;;;;130.27;122.80;;;9.20;99.90;;;;;;5031091;28;20040;-68
2023/12/03 11:57:55;;;;;;;183.13;173.00;;;9.20;99.90;;;;;;5030886;28;20060;-69
2023/12/03 12:00:24;;;;;;;153.45;144.73;;;9.10;99.90;;;;;;5031505;28;20541;-69
2023/12/03 12:02:51;;;;;;;134.77;127.20;;;9.10;99.90;;;;;;5031082;28;20395;-70
2023/12/03 12:05:18;;;;;;;136.68;129.18;;;9.10;99.90;;;;;;5031713;28;20042;-68
2023/12/03 12:08:01;;;;;;;193.23;182.98;;;9.10;99.90;;;;;;5040268;28;20482;-67
2023/12/03 12:10:28;;;;;;;134.32;127.05;;;9.20;99.90;;;;;;5040340;28;20052;-68
2023/12/03 12:12:55;;;;;;;155.85;147.45;;;9.20;99.90;;;;;;5032481;28;20029;-69
2023/12/03 12:15:22;;;;;;;117.47;111.13;;;9.30;99.90;;;;;;5031525;28;20048;-71
2023/12/03 12:17:48;;;;;;;125.35;118.32;;;9.40;99.90;;;;;;5033939;28;20038;-71
2023/12/03 12:20:25;;;;;;;73.63;69.40;;;9.40;99.90;;;;;;5028412;28;20053;-71
2023/12/03 12:22:54;;;;;;;62.83;59.20;;;9.50;99.90;;;;;;5046548;28;20029;-71
2023/12/03 12:25:20;;;;;;;58.13;54.70;;;9.50;99.90;;;;;;5042708;28;20064;-71
2023/12/03 12:27:48;;;;;;;58.42;54.95;;;9.60;99.90;;;;;;5032086;28;20067;-72
2023/12/03 12:30:15;;;;;;;63.33;59.70;;;9.60;99.90;;;;;;5050607;28;20043;-72
2023/12/03 12:32:41;;;;;;;93.13;87.63;;;9.70;99.90;;;;;;5031781;28;20057;-71